Time,TemperatureF,DewpointF,PressureIn,WindDirection,WindDirectionDegrees,WindSpeedMPH,WindSpeedGustMPH,Humidity,HourlyPrecipIn,Conditions,Clouds,dailyrainin,SoftwareType,DateUTC
2013-07-06 00:01:00,71.0,48.0,-100.00,West,280,4.0,6.0,44,0.00,,,0.00,,2013-07-06 06:01:00,
2013-07-06 00:12:00,70.0,48.0,-100.00,West,281,3.0,6.0,45,0.00,,,0.00,,2013-07-06 06:12:00,
2013-07-06 00:22:00,70.0,48.0,-100.00,West,281,3.0,6.0,45,0.00,,,0.00,,2013-07-06 06:22:00,
2013-07-06 00:33:00,69.0,48.0,-100.00,WSW,250,2.0,3.0,47,0.00,,,0.00,,2013-07-06 06:33:00,
2013-07-06 00:43:00,68.0,48.0,-100.00,WSW,256,1.0,2.0,50,0.00,,,0.00,,2013-07-06 06:43:00,
2013-07-06 01:01:00,67.0,48.0,-100.00,WSW,258,1.0,3.0,51,0.00,,,0.00,,2013-07-06 07:01:00,
2013-07-06 01:12:00,65.0,48.0,-100.00,SSW,192,1.0,2.0,53,0.00,,,0.00,,2013-07-06 07:12:00,
2013-07-06 01:22:00,65.0,48.0,-100.00,SSW,192,1.0,2.0,53,0.00,,,0.00,,2013-07-06 07:22:00,
2013-07-06 01:33:00,65.0,47.0,-100.00,ESE,121,1.0,2.0,53,0.00,,,0.00,,2013-07-06 07:33:00,
2013-07-06 01:43:00,66.0,47.0,-100.00,West,261,1.0,2.0,51,0.00,,,0.00,,2013-07-06 07:43:00,
2013-07-06 01:52:00,66.0,47.0,-100.00,West,261,1.0,2.0,51,0.00,,,0.00,,2013-07-06 07:52:00,
2013-07-06 02:02:00,65.0,48.0,-100.00,SW,219,1.0,2.0,54,0.00,,,0.00,,2013-07-06 08:02:00,
2013-07-06 02:11:00,65.0,48.0,-100.00,West,272,2.0,4.0,54,0.00,,,0.00,,2013-07-06 08:11:00,
2013-07-06 02:33:00,66.0,48.0,-100.00,WNW,294,3.0,5.0,52,0.00,,,0.00,,2013-07-06 08:33:00,
2013-07-06 02:43:00,64.0,48.0,-100.00,West,274,4.0,6.0,56,0.00,,,0.00,,2013-07-06 08:43:00,
2013-07-06 02:54:00,64.0,48.0,-100.00,West,274,4.0,6.0,56,0.00,,,0.00,,2013-07-06 08:54:00,
2013-07-06 03:02:00,64.0,48.0,-100.00,West,267,2.0,4.0,55,0.00,,,0.00,,2013-07-06 09:02:00,
2013-07-06 03:11:00,64.0,48.0,-100.00,West,275,3.0,7.0,56,0.00,,,0.00,,2013-07-06 09:11:00,
2013-07-06 03:33:00,64.0,47.0,-100.00,WNW,285,3.0,5.0,56,0.00,,,0.00,,2013-07-06 09:33:00,
2013-07-06 03:43:00,63.0,47.0,-100.00,West,265,3.0,5.0,55,0.00,,,0.00,,2013-07-06 09:43:00,
2013-07-06 04:02:00,63.0,47.0,-100.00,West,260,2.0,4.0,55,0.00,,,0.00,,2013-07-06 10:02:00,
2013-07-06 04:11:00,63.0,47.0,-100.00,West,281,3.0,7.0,56,0.00,,,0.00,,2013-07-06 10:11:00,
2013-07-06 04:33:00,62.0,47.0,-100.00,West,261,2.0,5.0,57,0.00,,,0.00,,2013-07-06 10:33:00,
2013-07-06 04:42:00,62.0,47.0,-100.00,West,277,3.0,6.0,57,0.00,,,0.00,,2013-07-06 10:42:00,
2013-07-06 05:01:00,62.0,47.0,-100.00,West,274,4.0,7.0,57,0.00,,,0.00,,2013-07-06 11:01:00,
2013-07-06 05:11:00,61.0,47.0,-100.00,West,280,3.0,6.0,59,0.00,,,0.00,,2013-07-06 11:11:00,
2013-07-06 05:21:00,61.0,47.0,-100.00,West,280,3.0,6.0,59,0.00,,,0.00,,2013-07-06 11:21:00,
2013-07-06 05:32:00,61.0,46.0,-100.00,NNW,343,3.0,5.0,58,0.00,,,0.00,,2013-07-06 11:32:00,
2013-07-06 05:42:00,61.0,46.0,-100.00,NNE,30,2.0,7.0,58,0.00,,,0.00,,2013-07-06 11:42:00,
2013-07-06 05:53:00,61.0,46.0,-100.00,NNE,30,2.0,7.0,58,0.00,,,0.00,,2013-07-06 11:53:00,
2013-07-06 06:01:00,61.0,46.0,-100.00,NNE,30,2.0,7.0,58,0.00,,,0.00,,2013-07-06 12:01:00,
2013-07-06 06:11:00,60.0,47.0,-100.00,North,356,2.0,7.0,61,0.00,,,0.00,,2013-07-06 12:11:00,
2013-07-06 06:22:00,60.0,47.0,-100.00,North,356,2.0,7.0,61,0.00,,,0.00,,2013-07-06 12:22:00,
2013-07-06 06:33:00,60.0,46.0,-100.00,NW,311,3.0,9.0,61,0.00,,,0.00,,2013-07-06 12:33:00,
2013-07-06 06:43:00,60.0,46.0,-100.00,North,354,4.0,8.0,61,0.00,,,0.00,,2013-07-06 12:43:00,
2013-07-06 07:01:00,60.0,46.0,-100.00,NNW,339,3.0,7.0,61,0.00,,,0.00,,2013-07-06 13:01:00,
2013-07-06 07:22:00,60.0,46.0,-100.00,NW,315,4.0,6.0,61,0.00,,,0.00,,2013-07-06 13:22:00,
2013-07-06 07:33:00,59.0,46.0,-100.00,North,10,4.0,5.0,62,0.00,,,0.00,,2013-07-06 13:33:00,
2013-07-06 07:52:00,59.0,46.0,-100.00,WNW,299,3.0,6.0,62,0.00,,,0.00,,2013-07-06 13:52:00,
2013-07-06 08:02:00,59.0,46.0,-100.00,WNW,299,3.0,6.0,62,0.00,,,0.00,,2013-07-06 14:02:00,
2013-07-06 08:22:00,60.0,47.0,-100.00,NNW,346,3.0,6.0,62,0.00,,,0.00,,2013-07-06 14:22:00,
2013-07-06 08:42:00,63.0,48.0,-100.00,NW,323,2.0,3.0,59,0.00,,,0.00,,2013-07-06 14:42:00,
2013-07-06 09:02:00,64.0,49.0,-100.00,NNW,344,2.0,3.0,57,0.00,,,0.00,,2013-07-06 15:02:00,
2013-07-06 09:12:00,64.0,49.0,-100.00,NNW,344,2.0,3.0,57,0.00,,,0.00,,2013-07-06 15:12:00,
2013-07-06 09:33:00,66.0,49.0,-100.00,WNW,289,3.0,5.0,55,0.00,,,0.00,,2013-07-06 15:33:00,
2013-07-06 09:43:00,67.0,50.0,-100.00,WNW,301,4.0,7.0,53,0.00,,,0.00,,2013-07-06 15:43:00,
2013-07-06 09:53:00,67.0,50.0,-100.00,WNW,301,4.0,7.0,53,0.00,,,0.00,,2013-07-06 15:53:00,
2013-07-06 10:03:00,69.0,49.0,-100.00,WNW,287,3.0,7.0,50,0.00,,,0.00,,2013-07-06 16:03:00,
2013-07-06 10:12:00,70.0,50.0,-100.00,WNW,289,4.0,8.0,50,0.00,,,0.00,,2013-07-06 16:12:00,
2013-07-06 10:46:00,72.0,50.0,-100.00,WNW,292,4.0,8.0,47,0.00,,,0.00,,2013-07-06 16:46:00,
2013-07-06 11:15:00,74.0,51.0,-100.00,WNW,295,3.0,5.0,44,0.00,,,0.00,,2013-07-06 17:15:00,
2013-07-06 11:25:00,74.0,51.0,-100.00,WNW,295,3.0,5.0,44,0.00,,,0.00,,2013-07-06 17:25:00,
2013-07-06 12:04:00,78.0,50.0,-100.00,NW,311,2.0,3.0,38,0.00,,,0.00,,2013-07-06 18:04:00,
2013-07-06 12:17:00,77.0,51.0,-100.00,NW,315,3.0,3.0,40,0.00,,,0.00,,2013-07-06 18:17:00,
2013-07-06 12:46:00,81.0,42.0,-100.00,SSE,161,6.0,10.0,26,0.00,,,0.00,,2013-07-06 18:46:00,
2013-07-06 13:14:00,82.0,42.0,-100.00,South,181,3.0,6.0,23,0.00,,,0.00,,2013-07-06 19:14:00,
2013-07-06 13:46:00,83.0,40.0,-100.00,SSE,167,4.0,7.0,22,0.00,,,0.00,,2013-07-06 19:46:00,
2013-07-06 14:14:00,83.0,38.0,-100.00,ESE,106,2.0,4.0,20,0.00,,,0.00,,2013-07-06 20:14:00,
2013-07-06 15:14:00,86.0,32.0,-100.00,South,176,4.0,8.0,14,0.00,,,0.00,,2013-07-06 21:14:00,
2013-07-06 15:38:00,85.0,31.0,-100.00,SE,144,6.0,9.0,14,0.00,,,0.00,,2013-07-06 21:38:00,
2013-07-06 15:46:00,85.0,31.0,-100.00,SE,144,6.0,9.0,14,0.00,,,0.00,,2013-07-06 21:46:00,
2013-07-06 16:17:00,86.0,34.0,-100.00,SE,145,1.0,3.0,16,0.00,,,0.00,,2013-07-06 22:17:00,
2013-07-06 16:35:00,86.0,35.0,-100.00,SSE,165,6.0,9.0,16,0.00,,,0.00,,2013-07-06 22:35:00,
2013-07-06 16:46:00,86.0,35.0,-100.00,SE,144,3.0,4.0,16,0.00,,,0.00,,2013-07-06 22:46:00,
2013-07-06 17:03:00,85.0,39.0,-100.00,NW,313,2.0,3.0,19,0.00,,,0.00,,2013-07-06 23:03:00,
2013-07-06 17:36:00,86.0,38.0,-100.00,SSW,203,2.0,5.0,18,0.00,,,0.00,,2013-07-06 23:36:00,
2013-07-06 18:00:00,86.0,38.0,-100.00,South,169,2.0,6.0,18,0.00,,,0.00,,2013-07-07 00:00:00,
2013-07-06 19:03:00,85.0,27.0,-100.00,WNW,295,6.0,10.0,12,0.00,,,0.00,,2013-07-07 01:03:00,
2013-07-06 19:33:00,85.0,28.0,-100.00,WNW,295,5.0,8.0,12,0.00,,,0.00,,2013-07-07 01:33:00,
2013-07-06 20:02:00,85.0,24.0,-100.00,WNW,298,4.0,8.0,11,0.00,,,0.00,,2013-07-07 02:02:00,
2013-07-06 20:32:00,84.0,32.0,-100.00,WNW,289,1.0,3.0,15,0.00,,,0.00,,2013-07-07 02:32:00,
2013-07-06 20:43:00,85.0,28.0,-100.00,West,277,1.0,3.0,12,0.00,,,0.00,,2013-07-07 02:43:00,
2013-07-06 22:01:00,78.0,43.0,-100.00,ENE,72,2.0,6.0,28,0.00,,,0.00,,2013-07-07 04:01:00,
2013-07-06 22:11:00,77.0,44.0,-100.00,ENE,73,2.0,5.0,30,0.00,,,0.00,,2013-07-07 04:11:00,
2013-07-06 22:21:00,77.0,44.0,-100.00,ENE,73,2.0,5.0,30,0.00,,,0.00,,2013-07-07 04:21:00,
2013-07-06 22:31:00,77.0,44.0,-100.00,East,97,2.0,4.0,30,0.00,,,0.00,,2013-07-07 04:31:00,
2013-07-06 22:41:00,77.0,44.0,-100.00,South,178,2.0,3.0,31,0.00,,,0.00,,2013-07-07 04:41:00,
2013-07-06 22:51:00,77.0,44.0,-100.00,South,178,2.0,3.0,31,0.00,,,0.00,,2013-07-07 04:51:00,
2013-07-06 23:01:00,77.0,44.0,-100.00,South,178,2.0,3.0,31,0.00,,,0.00,,2013-07-07 05:01:00,
2013-07-06 23:11:00,76.0,43.0,-100.00,WSW,253,2.0,5.0,31,0.00,,,0.00,,2013-07-07 05:11:00,
2013-07-06 23:31:00,72.0,46.0,-100.00,WNW,282,1.0,2.0,38,0.00,,,0.00,,2013-07-07 05:31:00,
2013-07-06 23:41:00,71.0,45.0,-100.00,WSW,237,1.0,2.0,40,0.00,,,0.00,,2013-07-07 05:41:00,
2013-07-06 23:51:00,71.0,45.0,-100.00,WSW,237,1.0,2.0,40,0.00,,,0.00,,2013-07-07 05:51:00,